Meyersville, Texas
Current Conditions -  °F | °C
As of 1:51 PM on Wednesday 17 Dec 2014 (Local Time) from KVCT Reporting Station
Overcast Overcast  
Wind Chill: 67°   Ceiling: 1800
Heat Index: 67°   Visibility: 10mi
Dew Point: 62°   Wind: 12mph
Humidity: 84%   Direction: 130°SE
Pressure: 30.07"   Gusts: NA
Location:  28.93°N, 97.31°W
Report Text: KVCT 171951Z 13010KT 10SM BKN018 BKN026 OVC031 19/17 A3007 RMK AO2 RAE07B20E37 SLP183 P0000 T01940167
Loading
Personal Weather Stations






























Interactive Weather Map New forecast layout! Learn more

10-Day Weather Forecast

Advertisements
Track Severe Weather on mobile